createdAt,value
2019-01-03T00:01:15.519Z,11.27
2019-01-03T00:03:56.476Z,11.31
2019-01-03T00:06:37.126Z,11.26
2019-01-03T00:09:18.247Z,11.20
2019-01-03T00:11:59.036Z,11.16
2019-01-03T00:14:40.079Z,11.21
2019-01-03T00:17:20.849Z,11.24
2019-01-03T00:20:01.318Z,11.21
2019-01-03T00:22:41.767Z,11.22
2019-01-03T00:25:22.465Z,11.23
2019-01-03T00:28:03.554Z,11.27
2019-01-03T00:30:44.178Z,11.41
2019-01-03T00:33:24.845Z,11.37
2019-01-03T00:36:05.314Z,11.43
2019-01-03T00:38:45.873Z,11.50
2019-01-03T00:41:26.755Z,11.33
2019-01-03T00:44:07.683Z,11.24
2019-01-03T00:46:48.958Z,11.14
2019-01-03T00:49:29.686Z,11.20
2019-01-03T00:52:10.021Z,11.10
2019-01-03T00:54:50.705Z,11.28
2019-01-03T00:57:31.475Z,11.33
2019-01-03T01:00:12.401Z,11.23
2019-01-03T01:02:53.517Z,11.16
2019-01-03T01:05:34.718Z,11.17
2019-01-03T01:08:15.682Z,11.16
2019-01-03T01:10:56.656Z,11.18
2019-01-03T01:13:37.706Z,11.27
2019-01-03T01:16:18.582Z,11.31
2019-01-03T01:18:59.534Z,11.43
2019-01-03T01:21:40.222Z,11.55
2019-01-03T01:24:21.494Z,11.64
2019-01-03T01:27:02.493Z,11.74
2019-01-03T01:29:43.361Z,11.80
2019-01-03T01:32:24.314Z,11.90
2019-01-03T01:35:04.571Z,12.01
2019-01-03T01:37:45.961Z,12.18
2019-01-03T01:40:27.209Z,12.41
2019-01-03T01:43:08.529Z,12.74
2019-01-03T01:45:49.640Z,13.12
2019-01-03T01:48:30.715Z,13.33
2019-01-03T01:51:12.015Z,13.43
2019-01-03T01:53:53.273Z,13.57
2019-01-03T01:56:34.340Z,13.68
2019-01-03T01:59:15.181Z,13.73
2019-01-03T02:01:55.832Z,13.80
2019-01-03T02:04:36.464Z,13.87
2019-01-03T02:07:16.967Z,13.98
2019-01-03T02:09:57.533Z,14.17
2019-01-03T02:12:37.797Z,14.39
2019-01-03T02:15:18.883Z,14.64
2019-01-03T02:17:59.519Z,14.84
2019-01-03T02:20:40.530Z,15.23
2019-01-03T02:23:21.594Z,15.79
2019-01-03T02:26:02.391Z,16.41
2019-01-03T02:28:43.242Z,17.00
2019-01-03T02:31:23.627Z,17.52
2019-01-03T02:34:04.252Z,18.04
2019-01-03T02:36:45.131Z,18.58
2019-01-03T02:39:26.088Z,19.11
2019-01-03T02:42:06.762Z,19.49
2019-01-03T02:44:48.010Z,19.76
2019-01-03T02:47:29.014Z,20.05
2019-01-03T02:50:09.817Z,20.40
2019-01-03T02:52:50.451Z,20.79
2019-01-03T02:55:30.722Z,21.28
2019-01-03T02:58:11.488Z,21.70
2019-01-03T03:00:51.946Z,21.91
2019-01-03T03:03:32.414Z,22.34
2019-01-03T03:06:13.280Z,22.47
2019-01-03T03:08:53.581Z,22.71
2019-01-03T03:11:34.401Z,22.95
2019-01-03T03:14:14.560Z,23.02
2019-01-03T03:16:54.597Z,23.27
2019-01-03T03:19:35.688Z,23.42
2019-01-03T03:22:16.659Z,23.65
2019-01-03T03:24:56.880Z,23.98
2019-01-03T03:27:37.222Z,24.22
2019-01-03T03:30:17.607Z,24.40
2019-01-03T03:32:58.624Z,24.44
2019-01-03T03:35:39.512Z,24.64
2019-01-03T03:38:20.270Z,24.81
2019-01-03T03:41:01.211Z,25.01
2019-01-03T03:43:41.816Z,24.85
2019-01-03T03:46:22.721Z,24.89
2019-01-03T03:49:03.974Z,25.14
2019-01-03T03:51:45.289Z,24.96
2019-01-03T03:54:26.294Z,24.94
2019-01-03T03:57:07.268Z,25.07
2019-01-03T03:59:47.934Z,25.25
2019-01-03T04:02:28.479Z,25.18
2019-01-03T04:05:08.947Z,25.09
2019-01-03T04:07:49.615Z,25.13
2019-01-03T04:10:29.802Z,24.85
2019-01-03T04:13:10.556Z,24.86
2019-01-03T04:15:51.725Z,24.94
2019-01-03T04:18:32.015Z,24.84
2019-01-03T04:21:12.969Z,24.61
2019-01-03T04:23:53.612Z,24.49
2019-01-03T04:26:34.651Z,24.45
2019-01-03T04:29:15.199Z,24.67
2019-01-03T04:31:56.235Z,24.98
2019-01-03T04:34:37.023Z,25.15
2019-01-03T04:37:17.684Z,25.12
2019-01-03T04:39:58.395Z,25.29
2019-01-03T04:42:39.093Z,25.27
2019-01-03T04:45:20.010Z,25.47
2019-01-03T04:48:00.852Z,25.46
2019-01-03T04:50:41.319Z,25.65
2019-01-03T04:53:22.564Z,25.73
2019-01-03T04:56:03.842Z,25.83
2019-01-03T04:58:44.860Z,25.67
2019-01-03T05:01:25.451Z,25.69
2019-01-03T05:04:06.006Z,25.87
2019-01-03T05:06:46.723Z,25.56
2019-01-03T05:09:27.533Z,25.78
2019-01-03T05:12:08.670Z,25.06
2019-01-03T05:14:49.427Z,25.43
2019-01-03T05:17:30.589Z,25.83
2019-01-03T05:20:11.397Z,26.03
2019-01-03T05:22:51.788Z,26.33
2019-01-03T05:25:32.226Z,26.61
2019-01-03T05:28:12.577Z,26.83
2019-01-03T05:30:52.938Z,26.74
2019-01-03T05:37:59.926Z,27.29
2019-01-03T05:40:40.592Z,27.33
2019-01-03T05:43:20.765Z,27.45
2019-01-03T05:46:01.520Z,27.50
2019-01-03T05:48:42.162Z,27.31
2019-01-03T05:51:22.944Z,27.59
2019-01-03T05:54:02.996Z,27.73
2019-01-03T05:56:43.881Z,27.79
2019-01-03T05:59:24.876Z,27.67
2019-01-03T06:02:05.835Z,27.61
2019-01-03T06:04:47.074Z,27.43
2019-01-03T06:07:28.153Z,27.34
2019-01-03T06:10:08.521Z,27.38
2019-01-03T06:12:49.197Z,27.31
2019-01-03T06:15:29.744Z,27.25
2019-01-03T06:18:10.642Z,27.39
2019-01-03T06:20:50.874Z,27.52
2019-01-03T06:23:31.778Z,26.76
2019-01-03T06:26:12.509Z,26.66
2019-01-03T06:28:52.788Z,26.80
2019-01-03T06:31:33.675Z,27.15
2019-01-03T06:34:14.458Z,27.19
2019-01-03T06:36:54.876Z,27.14
2019-01-03T06:39:35.353Z,27.19
2019-01-03T06:42:15.592Z,27.00
2019-01-03T06:44:56.076Z,26.85
2019-01-03T06:47:36.745Z,26.87
2019-01-03T06:50:17.183Z,26.70
2019-01-03T07:21:07.213Z,27.58
2019-01-03T07:23:48.191Z,27.54
2019-01-03T07:26:29.123Z,27.80
2019-01-03T07:29:09.576Z,27.90
2019-01-03T07:31:50.043Z,28.10
2019-01-03T07:34:30.514Z,28.13
2019-01-03T07:37:11.043Z,28.12
2019-01-03T07:39:51.811Z,28.16
2019-01-03T07:42:32.738Z,27.97
2019-01-03T07:45:13.039Z,28.11
2019-01-03T07:47:53.669Z,28.16
2019-01-03T07:50:34.105Z,27.88
2019-01-03T07:53:15.245Z,27.95
2019-01-03T07:55:56.283Z,27.88
2019-01-03T07:58:36.698Z,27.84
2019-01-03T08:01:17.463Z,27.61
2019-01-03T08:04:04.986Z,27.60
2019-01-03T08:06:46.384Z,27.94
2019-01-03T08:09:26.826Z,28.19
2019-01-03T08:12:08.313Z,28.04
2019-01-03T08:14:48.659Z,27.82
2019-01-03T08:17:29.330Z,28.01
2019-01-03T08:20:10.203Z,27.92
2019-01-03T08:22:50.743Z,27.72
2019-01-03T08:25:31.438Z,27.57
2019-01-03T08:35:34.118Z,27.37
2019-01-03T08:38:14.874Z,27.50
2019-01-03T08:40:55.555Z,27.52
2019-01-03T08:43:36.442Z,27.47
2019-01-03T08:46:17.350Z,27.45
2019-01-03T08:49:00.591Z,27.26
2019-01-03T08:51:39.472Z,27.35
2019-01-03T08:54:19.923Z,27.47
2019-01-03T08:57:00.608Z,27.66
2019-01-03T08:59:41.241Z,27.84
2019-01-03T09:02:21.862Z,28.18
2019-01-03T09:05:02.276Z,28.29
2019-01-03T09:07:42.938Z,28.36
2019-01-03T09:10:23.586Z,28.33
2019-01-03T09:13:04.170Z,28.54
2019-01-03T09:15:44.772Z,28.37
2019-01-03T09:33:13.945Z,27.75
2019-01-03T09:35:54.550Z,27.74
2019-01-03T09:38:35.544Z,27.74
2019-01-03T09:41:16.507Z,27.80
2019-01-03T09:43:57.537Z,27.90
2019-01-03T09:46:38.662Z,27.92
2019-01-03T09:49:19.712Z,27.66
2019-01-03T09:52:00.298Z,27.73
2019-01-03T09:54:41.388Z,27.72
2019-01-03T09:57:22.319Z,27.58
2019-01-03T10:00:02.893Z,27.45
2019-01-03T10:02:43.245Z,27.38
2019-01-03T10:05:24.261Z,27.23
2019-01-03T10:08:05.588Z,27.10
2019-01-03T10:10:47.225Z,27.00
2019-01-03T10:13:28.194Z,26.85
2019-01-03T10:16:08.545Z,26.64
2019-01-03T10:18:49.438Z,26.39
2019-01-03T10:21:30.092Z,26.10
2019-01-03T10:24:10.469Z,25.83
2019-01-03T10:26:51.264Z,25.68
2019-01-03T10:29:32.413Z,25.55
2019-01-03T10:32:14.095Z,25.34
2019-01-03T10:34:54.645Z,25.14
2019-01-03T10:37:35.588Z,25.04
2019-01-03T10:40:16.814Z,24.94
2019-01-03T10:42:57.445Z,24.85
2019-01-03T10:45:37.931Z,24.79
2019-01-03T10:48:18.384Z,24.71
2019-01-03T10:50:59.093Z,24.54
2019-01-03T10:53:39.620Z,24.33
2019-01-03T10:56:20.280Z,24.09
2019-01-03T10:59:00.645Z,23.88
2019-01-03T11:01:41.820Z,23.66
2019-01-03T11:04:22.712Z,23.44
2019-01-03T11:07:03.571Z,23.19
2019-01-03T11:09:43.935Z,22.91
2019-01-03T11:12:24.642Z,22.67
2019-01-03T11:15:05.693Z,22.47
2019-01-03T11:17:46.455Z,22.25
2019-01-03T11:20:27.626Z,22.04
2019-01-03T11:23:08.512Z,21.82
2019-01-03T11:25:49.349Z,21.59
2019-01-03T11:28:30.592Z,21.34
2019-01-03T11:31:11.414Z,21.19
2019-01-03T11:33:52.341Z,20.93
2019-01-03T11:36:33.099Z,20.73
2019-01-03T11:39:13.710Z,20.51
2019-01-03T11:41:53.987Z,20.33
2019-01-03T11:44:34.320Z,20.18
2019-01-03T11:47:15.327Z,19.99
2019-01-03T11:49:56.011Z,19.78
2019-01-03T11:52:36.828Z,19.60
2019-01-03T11:55:17.296Z,19.38
2019-01-03T11:57:57.962Z,19.17
2019-01-03T12:00:38.622Z,19.06
2019-01-03T12:03:19.092Z,19.01
2019-01-03T12:05:59.546Z,18.88
2019-01-03T12:08:40.225Z,18.74
2019-01-03T12:11:20.786Z,18.65
2019-01-03T12:14:01.307Z,18.61
2019-01-03T12:16:42.205Z,18.49
2019-01-03T12:19:23.212Z,18.35
2019-01-03T12:22:04.176Z,18.32
2019-01-03T12:24:44.937Z,18.26
2019-01-03T12:27:25.495Z,18.24
2019-01-03T12:30:06.291Z,18.14
2019-01-03T12:32:46.850Z,18.06
2019-01-03T12:35:28.163Z,17.97
2019-01-03T12:38:08.921Z,17.86
2019-01-03T12:40:49.536Z,17.81
2019-01-03T12:43:29.936Z,17.67
2019-01-03T12:50:15.720Z,17.42
2019-01-03T12:52:56.288Z,17.30
2019-01-03T12:55:36.868Z,17.25
2019-01-03T12:58:17.223Z,17.00
2019-01-03T13:00:57.864Z,17.04
2019-01-03T13:03:39.218Z,17.00
2019-01-03T13:06:21.060Z,16.89
2019-01-03T13:09:02.421Z,16.80
2019-01-03T13:11:43.407Z,16.82
2019-01-03T13:14:24.024Z,16.66
2019-01-03T13:17:05.635Z,16.60
2019-01-03T13:19:46.313Z,16.57
2019-01-03T13:22:26.790Z,16.48
2019-01-03T13:25:07.503Z,16.37
2019-01-03T13:27:49.114Z,16.26
2019-01-03T13:30:30.225Z,16.20
2019-01-03T13:33:11.352Z,16.12
2019-01-03T13:35:52.394Z,16.03
2019-01-03T13:38:33.203Z,15.92
2019-01-03T13:41:14.344Z,15.88
2019-01-03T13:43:55.215Z,15.84
2019-01-03T13:46:35.625Z,15.77
2019-01-03T13:49:16.545Z,15.69
2019-01-03T13:51:57.147Z,15.62
2019-01-03T13:54:38.183Z,15.59
2019-01-03T13:57:18.944Z,15.54
2019-01-03T13:59:59.855Z,15.51
2019-01-03T14:02:40.787Z,15.44
2019-01-03T14:05:21.954Z,15.48
2019-01-03T14:08:03.240Z,15.45
2019-01-03T14:10:44.218Z,15.40
2019-01-03T14:13:24.780Z,15.41
2019-01-03T14:16:05.017Z,15.40
2019-01-03T14:18:45.589Z,15.29
2019-01-03T14:21:26.487Z,15.23
2019-01-03T14:24:07.345Z,15.18
2019-01-03T14:26:48.334Z,15.07
2019-01-03T14:29:29.066Z,15.06
2019-01-03T14:32:09.772Z,14.99
2019-01-03T14:34:50.637Z,14.98
2019-01-03T14:37:31.493Z,14.86
2019-01-03T14:40:12.499Z,14.86
2019-01-03T14:42:52.788Z,14.84
2019-01-03T14:45:33.273Z,14.77
2019-01-03T14:48:14.154Z,14.75
2019-01-03T14:50:54.615Z,14.68
2019-01-03T14:53:41.791Z,14.70
2019-01-03T14:56:32.109Z,14.70
2019-01-03T15:02:06.642Z,14.58
2019-01-03T15:05:00.199Z,14.53
2019-01-03T15:07:51.075Z,14.60
2019-01-03T15:10:38.600Z,14.71
2019-01-03T15:13:27.986Z,14.70
2019-01-03T15:19:12.780Z,14.57
2019-01-03T15:24:48.395Z,14.59
2019-01-03T15:27:36.190Z,14.54
2019-01-03T15:30:29.876Z,14.49
2019-01-03T15:36:08.628Z,14.27
2019-01-03T15:38:53.872Z,14.25
2019-01-03T15:50:06.096Z,14.27
2019-01-03T15:55:40.790Z,14.25
2019-01-03T15:58:24.902Z,14.11
2019-01-03T16:01:06.202Z,14.09
2019-01-03T16:03:50.278Z,14.12
2019-01-03T16:09:28.190Z,14.10
2019-01-03T16:12:14.112Z,14.00
2019-01-03T16:14:56.779Z,13.87
2019-01-03T16:17:40.953Z,13.93
2019-01-03T16:26:06.472Z,13.98
2019-01-03T16:28:49.795Z,13.84
2019-01-03T16:31:35.549Z,13.81
2019-01-03T16:34:24.144Z,13.81
2019-01-03T16:37:17.392Z,13.77
2019-01-03T16:39:59.140Z,13.69
2019-01-03T16:42:42.587Z,13.72
2019-01-03T16:45:36.715Z,13.83
2019-01-03T16:51:10.825Z,13.69
2019-01-03T16:53:56.259Z,13.71
2019-01-03T16:56:40.526Z,13.62
2019-01-03T16:59:22.836Z,13.65
2019-01-03T17:02:08.032Z,13.70
2019-01-03T17:04:53.732Z,13.37
2019-01-03T17:07:38.389Z,13.23
2019-01-03T17:10:26.308Z,13.14
2019-01-03T17:13:07.349Z,13.27
2019-01-03T17:18:48.921Z,13.04
2019-01-03T17:21:29.815Z,13.16
2019-01-03T17:24:10.971Z,13.08
2019-01-03T17:26:55.510Z,13.12
2019-01-03T17:29:45.305Z,13.16
2019-01-03T17:32:26.335Z,13.11
2019-01-03T17:35:07.187Z,13.18
2019-01-03T17:37:47.499Z,13.06
2019-01-03T17:40:28.716Z,12.98
2019-01-03T17:43:09.584Z,12.92
2019-01-03T17:45:49.858Z,13.04
2019-01-03T17:48:30.536Z,13.10
2019-01-03T17:51:11.469Z,12.92
2019-01-03T17:53:52.338Z,12.93
2019-01-03T17:56:37.439Z,12.94
2019-01-03T17:59:28.469Z,12.84
2019-01-03T18:02:17.318Z,12.81
2019-01-03T18:05:01.317Z,12.85
2019-01-03T18:10:30.316Z,12.84
2019-01-03T18:13:14.358Z,12.89
2019-01-03T18:18:44.282Z,12.88
2019-01-03T18:21:25.361Z,12.67
2019-01-03T18:24:08.424Z,12.53
2019-01-03T18:26:53.920Z,12.47
2019-01-03T18:29:38.775Z,12.34
2019-01-03T18:32:19.834Z,12.23
2019-01-03T18:35:00.506Z,12.24
2019-01-03T18:37:41.466Z,12.23
2019-01-03T18:40:22.173Z,12.24
2019-01-03T18:43:04.567Z,12.20
2019-01-03T18:45:45.333Z,12.26
2019-01-03T18:48:26.174Z,12.32
2019-01-03T18:51:06.497Z,12.39
2019-01-03T18:53:47.055Z,12.36
2019-01-03T18:56:28.337Z,12.34
2019-01-03T18:59:09.143Z,12.35
2019-01-03T19:01:50.233Z,12.34
2019-01-03T19:04:32.062Z,12.30
2019-01-03T19:07:13.977Z,12.23
2019-01-03T19:09:55.692Z,12.27
2019-01-03T19:12:36.910Z,12.15
2019-01-03T19:15:18.502Z,12.11
2019-01-03T19:18:00.561Z,11.89
2019-01-03T19:20:41.182Z,11.94
2019-01-03T19:23:22.057Z,12.04
2019-01-03T19:26:02.508Z,12.09
2019-01-03T19:28:43.029Z,12.10
2019-01-03T19:31:24.682Z,12.13
2019-01-03T19:34:05.541Z,12.10
2019-01-03T19:36:50.227Z,12.07
2019-01-03T19:39:31.161Z,12.09
2019-01-03T19:42:12.544Z,12.07
2019-01-03T19:44:54.845Z,12.02
2019-01-03T19:47:43.873Z,12.07
2019-01-03T19:50:25.312Z,12.09
2019-01-03T19:53:05.998Z,12.08
2019-01-03T19:55:46.909Z,12.06
2019-01-03T19:58:27.594Z,12.02
2019-01-03T20:01:08.876Z,12.01
2019-01-03T20:03:49.435Z,11.98
2019-01-03T20:06:30.304Z,11.94
2019-01-03T20:09:11.110Z,11.86
2019-01-03T20:11:52.083Z,11.86
2019-01-03T20:14:32.984Z,11.86
2019-01-03T20:17:13.948Z,11.86
2019-01-03T20:19:54.889Z,11.88
2019-01-03T20:22:35.936Z,11.83
2019-01-03T20:25:16.801Z,11.78
2019-01-03T20:27:57.407Z,11.79
2019-01-03T20:30:38.278Z,11.75
2019-01-03T20:33:19.045Z,11.69
2019-01-03T20:36:00.051Z,11.69
2019-01-03T20:38:40.987Z,11.65
2019-01-03T20:41:21.942Z,11.66
2019-01-03T20:44:02.703Z,11.66
2019-01-03T20:46:43.686Z,11.68
2019-01-03T20:49:24.498Z,11.67
2019-01-03T20:52:05.529Z,11.60
2019-01-03T20:54:46.297Z,11.59
2019-01-03T20:57:26.560Z,11.56
2019-01-03T21:00:07.439Z,11.56
2019-01-03T21:02:47.775Z,11.54
2019-01-03T21:05:28.264Z,11.52
2019-01-03T21:08:08.701Z,11.57
2019-01-03T21:10:49.374Z,11.59
2019-01-03T21:13:29.658Z,11.71
2019-01-03T21:16:10.202Z,11.68
2019-01-03T21:18:50.884Z,11.71
2019-01-03T21:21:31.421Z,11.32
2019-01-03T21:24:13.129Z,11.37
2019-01-03T21:26:54.523Z,11.46
2019-01-03T21:29:35.261Z,11.35
2019-01-03T21:32:16.000Z,11.31
2019-01-03T21:34:56.976Z,11.32
2019-01-03T21:37:37.487Z,11.36
2019-01-03T21:40:18.580Z,11.34
2019-01-03T21:42:59.216Z,11.28
2019-01-03T21:45:39.615Z,11.29
2019-01-03T21:48:20.169Z,11.24
2019-01-03T21:51:01.004Z,11.14
2019-01-03T21:53:42.249Z,11.11
2019-01-03T21:56:22.847Z,11.12
2019-01-03T21:59:03.562Z,11.12
2019-01-03T22:01:44.075Z,11.16
2019-01-03T22:04:25.083Z,11.18
2019-01-03T22:07:06.239Z,11.20
2019-01-03T22:09:47.208Z,11.18
2019-01-03T22:12:27.772Z,11.06
2019-01-03T22:15:08.336Z,11.17
2019-01-03T22:17:48.563Z,11.24
2019-01-03T22:20:29.206Z,11.28
2019-01-03T22:23:09.815Z,11.18
2019-01-03T22:25:50.523Z,11.10
2019-01-03T22:28:30.847Z,11.04
2019-01-03T22:31:11.280Z,11.17
2019-01-03T22:33:52.078Z,11.09
2019-01-03T22:36:32.411Z,11.00
2019-01-03T22:39:13.620Z,10.98
2019-01-03T22:41:54.573Z,11.07
2019-01-03T22:44:35.838Z,11.02
2019-01-03T22:47:16.647Z,10.93
2019-01-03T22:49:57.760Z,10.82
2019-01-03T22:52:39.071Z,10.80
2019-01-03T22:55:20.089Z,10.86
2019-01-03T22:58:00.864Z,10.86
2019-01-03T23:00:41.932Z,10.81
2019-01-03T23:03:23.008Z,10.77
2019-01-03T23:06:04.199Z,10.78
2019-01-03T23:08:44.841Z,10.69
2019-01-03T23:11:25.759Z,10.67
2019-01-03T23:14:07.048Z,10.65
2019-01-03T23:16:48.106Z,10.65
2019-01-03T23:19:28.975Z,10.63
2019-01-03T23:22:09.695Z,10.61
2019-01-03T23:24:50.572Z,10.64
2019-01-03T23:27:30.929Z,10.67
2019-01-03T23:30:14.226Z,10.63
2019-01-03T23:32:55.265Z,10.57
2019-01-03T23:35:36.097Z,10.56
2019-01-03T23:38:16.056Z,10.51
2019-01-03T23:40:57.307Z,10.50
2019-01-03T23:43:38.566Z,10.49
2019-01-03T23:46:19.839Z,10.53
2019-01-03T23:49:00.855Z,10.55
2019-01-03T23:51:41.767Z,10.54
2019-01-03T23:54:23.071Z,10.51
2019-01-03T23:57:03.575Z,10.48
2019-01-03T23:59:44.977Z,10.43
